createdAt,value
2022-10-15T00:01:16.767Z,6.68
2022-10-15T00:04:02.907Z,6.50
2022-10-15T00:06:49.115Z,6.15
2022-10-15T00:09:34.886Z,6.28
2022-10-15T00:12:20.896Z,5.28
2022-10-15T00:15:07.458Z,5.75
2022-10-15T00:17:53.548Z,6.05
2022-10-15T00:20:41.948Z,5.00
2022-10-15T00:23:27.914Z,5.32
2022-10-15T00:26:16.314Z,5.25
2022-10-15T00:29:03.698Z,5.55
2022-10-15T00:31:49.767Z,5.47
2022-10-15T00:34:35.895Z,5.80
2022-10-15T00:37:22.961Z,5.25
2022-10-15T00:40:09.826Z,4.78
2022-10-15T00:42:55.992Z,5.10
2022-10-15T00:45:42.069Z,5.30
2022-10-15T00:48:28.695Z,5.47
2022-10-15T00:51:15.043Z,5.40
2022-10-15T00:54:01.662Z,4.60
2022-10-15T00:56:49.681Z,5.18
2022-10-15T00:59:40.041Z,5.50
2022-10-15T01:02:26.749Z,5.18
2022-10-15T01:05:14.556Z,5.35
2022-10-15T01:08:00.453Z,4.90
2022-10-15T01:11:07.563Z,5.30
2022-10-15T01:14:11.672Z,4.95
2022-10-15T01:17:09.868Z,5.05
2022-10-15T01:20:37.489Z,5.22
2022-10-15T01:23:47.974Z,5.13
2022-10-15T01:27:22.150Z,5.05
2022-10-15T01:30:26.733Z,5.10
2022-10-15T01:33:24.946Z,4.78
2022-10-15T01:36:29.419Z,5.13
2022-10-15T01:39:18.493Z,5.38
2022-10-15T01:42:08.346Z,5.22
2022-10-15T01:44:59.536Z,5.05
2022-10-15T01:48:08.279Z,5.50
2022-10-15T01:50:57.911Z,5.00
2022-10-15T01:53:44.355Z,5.00
2022-10-15T01:56:30.883Z,5.15
2022-10-15T01:59:21.624Z,4.88
2022-10-15T02:02:07.645Z,5.10
2022-10-15T02:04:53.455Z,5.13
2022-10-15T02:08:10.839Z,5.28
2022-10-15T02:11:03.906Z,5.13
2022-10-15T02:14:08.233Z,5.82
2022-10-15T02:17:05.864Z,5.10
2022-10-15T02:23:20.726Z,5.00
2022-10-15T02:26:09.235Z,4.97
2022-10-15T02:28:58.297Z,5.40
2022-10-15T02:31:46.892Z,5.90
2022-10-15T02:34:33.762Z,5.50
2022-10-15T02:37:22.472Z,4.90
2022-10-15T02:40:09.269Z,5.25
2022-10-15T02:42:56.334Z,5.35
2022-10-15T02:45:42.712Z,5.47
2022-10-15T02:48:28.753Z,5.32
2022-10-15T02:51:14.844Z,6.20
2022-10-15T02:54:01.695Z,5.97
2022-10-15T02:56:47.903Z,5.63
2022-10-15T02:59:35.457Z,5.50
2022-10-15T03:02:21.446Z,4.72
2022-10-15T03:05:07.798Z,5.28
2022-10-15T03:07:53.847Z,5.47
2022-10-15T03:10:40.193Z,5.18
2022-10-15T03:13:28.362Z,5.05
2022-10-15T03:16:15.671Z,5.38
2022-10-15T03:19:04.528Z,4.85
2022-10-15T03:21:50.542Z,4.97
2022-10-15T03:24:36.951Z,5.18
2022-10-15T03:27:24.415Z,4.88
2022-10-15T03:30:11.185Z,5.43
2022-10-15T03:32:58.264Z,5.18
2022-10-15T03:35:45.583Z,4.97
2022-10-15T03:38:32.481Z,5.60
2022-10-15T03:41:18.849Z,5.43
2022-10-15T03:44:07.699Z,5.22
2022-10-15T03:46:56.080Z,5.28
2022-10-15T03:49:46.108Z,5.40
2022-10-15T03:52:32.753Z,5.18
2022-10-15T03:55:19.413Z,5.03
2022-10-15T03:58:05.346Z,4.90
2022-10-15T04:00:52.185Z,5.57
2022-10-15T04:03:38.611Z,5.35
2022-10-15T04:06:24.508Z,5.50
2022-10-15T04:09:11.281Z,5.60
2022-10-15T04:11:57.188Z,5.80
2022-10-15T04:14:43.166Z,5.97
2022-10-15T04:17:28.936Z,5.43
2022-10-15T04:20:16.259Z,5.60
2022-10-15T04:23:04.633Z,5.85
2022-10-15T04:25:51.025Z,6.13
2022-10-15T04:28:36.861Z,9.63
2022-10-15T04:31:23.771Z,7.60
2022-10-15T04:34:10.415Z,7.47
2022-10-15T04:36:56.623Z,6.57
2022-10-15T04:39:43.530Z,6.47
2022-10-15T04:42:32.430Z,5.63
2022-10-15T04:45:18.666Z,6.10
2022-10-15T04:48:05.430Z,6.32
2022-10-15T04:50:51.869Z,6.25
2022-10-15T04:53:39.752Z,6.03
2022-10-15T04:56:25.485Z,9.50
2022-10-15T04:59:11.942Z,7.57
2022-10-15T05:02:17.434Z,7.20
2022-10-15T05:05:08.100Z,7.30
2022-10-15T05:08:04.162Z,6.90
2022-10-15T05:10:54.929Z,6.95
2022-10-15T05:13:42.112Z,7.50
2022-10-15T05:16:29.241Z,6.88
2022-10-15T05:19:17.910Z,7.55
2022-10-15T05:22:04.179Z,7.00
2022-10-15T05:24:51.640Z,7.28
2022-10-15T05:27:49.255Z,8.32
2022-10-15T05:30:35.405Z,7.63
2022-10-15T05:33:23.224Z,7.32
2022-10-15T05:36:18.103Z,9.38
2022-10-15T05:39:10.344Z,8.52
2022-10-15T05:42:00.839Z,8.52
2022-10-15T05:45:00.023Z,9.45
2022-10-15T05:47:45.841Z,8.68
2022-10-15T05:50:35.221Z,7.57
2022-10-15T05:53:23.737Z,7.93
2022-10-15T05:56:18.022Z,8.07
2022-10-15T05:59:04.781Z,7.53
2022-10-15T06:01:51.317Z,7.07
2022-10-15T06:04:37.487Z,7.85
2022-10-15T06:07:23.667Z,7.25
2022-10-15T06:10:09.878Z,7.50
2022-10-15T06:12:55.811Z,8.52
2022-10-15T06:15:43.438Z,8.50
2022-10-15T06:18:29.732Z,8.38
2022-10-15T06:21:16.336Z,7.57
2022-10-15T06:24:04.124Z,8.43
2022-10-15T06:26:52.157Z,8.32
2022-10-15T06:29:38.127Z,7.55
2022-10-15T06:32:24.094Z,7.82
2022-10-15T06:35:10.096Z,6.50
2022-10-15T06:38:00.650Z,6.55
2022-10-15T06:40:49.023Z,5.93
2022-10-15T06:43:35.765Z,6.28
2022-10-15T06:46:22.251Z,6.45
2022-10-15T06:49:08.775Z,6.43
2022-10-15T06:52:01.020Z,6.93
2022-10-15T06:54:49.826Z,6.57
2022-10-15T06:57:37.729Z,5.47
2022-10-15T07:00:26.368Z,5.53
2022-10-15T07:03:12.929Z,5.93
2022-10-15T07:06:06.993Z,6.05
2022-10-15T07:08:53.427Z,6.53
2022-10-15T07:11:39.667Z,6.25
2022-10-15T07:14:25.653Z,5.88
2022-10-15T07:17:11.548Z,5.85
2022-10-15T07:19:57.544Z,5.43
2022-10-15T07:22:43.612Z,6.07
2022-10-15T07:25:29.984Z,6.40
2022-10-15T07:28:16.172Z,6.22
2022-10-15T07:31:06.625Z,6.18
2022-10-15T07:33:52.855Z,6.43
2022-10-15T07:36:39.553Z,5.30
2022-10-15T07:39:25.897Z,6.63
2022-10-15T07:44:59.580Z,5.90
2022-10-15T07:47:45.841Z,6.25
2022-10-15T07:50:36.351Z,7.10
2022-10-15T07:53:25.140Z,6.90
2022-10-15T07:56:16.626Z,7.88
2022-10-15T07:59:02.949Z,7.13
2022-10-15T08:01:50.723Z,5.95
2022-10-15T08:04:36.962Z,6.40
2022-10-15T08:07:23.113Z,6.47
2022-10-15T08:10:10.623Z,8.38
2022-10-15T08:12:58.277Z,10.43
2022-10-15T08:15:44.233Z,10.35
2022-10-15T08:18:30.363Z,10.73
2022-10-15T08:21:16.212Z,10.15
2022-10-15T08:24:02.293Z,10.07
2022-10-15T08:26:54.472Z,10.73
2022-10-15T08:29:40.552Z,9.05
2022-10-15T08:32:26.673Z,10.15
2022-10-15T08:35:12.843Z,12.30
2022-10-15T08:37:58.730Z,9.38
2022-10-15T08:40:49.534Z,11.00
2022-10-15T08:43:38.667Z,9.68
2022-10-15T08:46:39.845Z,11.00
2022-10-15T08:49:37.463Z,9.93
2022-10-15T08:52:34.676Z,8.75
2022-10-15T08:55:22.347Z,8.25
2022-10-15T08:58:17.021Z,9.82
2022-10-15T09:01:47.690Z,10.65
2022-10-15T09:04:52.035Z,10.65
2022-10-15T09:07:48.697Z,10.25
2022-10-15T09:10:44.286Z,11.93
2022-10-15T09:13:42.361Z,11.02
2022-10-15T09:16:33.099Z,15.52
2022-10-15T09:19:22.319Z,11.18
2022-10-15T09:22:12.855Z,11.50
2022-10-15T09:24:58.734Z,11.65
2022-10-15T09:27:47.874Z,12.25
2022-10-15T09:30:53.581Z,10.40
2022-10-15T09:33:53.108Z,10.20
2022-10-15T09:36:51.931Z,9.52
2022-10-15T09:39:42.182Z,10.68
2022-10-15T09:42:30.997Z,8.88
2022-10-15T09:45:17.292Z,10.13
2022-10-15T09:48:13.473Z,8.20
2022-10-15T09:51:04.529Z,8.52
2022-10-15T09:54:15.141Z,8.13
2022-10-15T09:57:01.602Z,6.13
2022-10-15T10:00:01.935Z,6.38
2022-10-15T10:03:07.252Z,7.53
2022-10-15T10:06:07.495Z,7.95
2022-10-15T10:08:59.331Z,12.95
2022-10-15T10:11:54.045Z,12.23
2022-10-15T10:14:45.653Z,11.85
2022-10-15T10:17:34.655Z,11.30
2022-10-15T10:20:24.673Z,11.20
2022-10-15T10:23:31.586Z,11.23
2022-10-15T10:26:17.612Z,10.85
2022-10-15T10:29:15.810Z,10.07
2022-10-15T10:32:24.170Z,10.48
2022-10-15T10:35:22.638Z,12.85
2022-10-15T10:38:22.082Z,11.65
2022-10-15T10:41:11.743Z,10.77
2022-10-15T10:43:57.931Z,7.30
2022-10-15T10:46:45.144Z,10.90
2022-10-15T10:49:46.364Z,10.40
2022-10-15T10:52:35.047Z,9.30
2022-10-15T10:55:25.206Z,9.05
2022-10-15T10:58:22.097Z,7.60
2022-10-15T11:01:13.049Z,13.82
2022-10-15T11:03:59.105Z,8.35
2022-10-15T11:07:05.480Z,6.22
2022-10-15T11:09:55.276Z,6.45
2022-10-15T11:12:42.467Z,5.75
2022-10-15T11:15:46.137Z,7.30
2022-10-15T11:18:44.391Z,9.18
2022-10-15T11:21:49.997Z,8.60
2022-10-15T11:24:49.422Z,6.60
2022-10-15T11:27:57.783Z,8.15
2022-10-15T11:31:04.973Z,8.00
2022-10-15T11:34:09.674Z,6.93
2022-10-15T11:37:29.144Z,7.22
2022-10-15T11:40:34.644Z,7.55
2022-10-15T11:43:43.990Z,14.57
2022-10-15T11:47:04.261Z,6.25
2022-10-15T11:50:32.112Z,7.18
2022-10-15T11:53:51.488Z,7.18
2022-10-15T11:56:41.397Z,6.80
2022-10-15T11:59:32.616Z,5.97
2022-10-15T12:02:27.092Z,7.57
2022-10-15T12:05:38.800Z,8.35
2022-10-15T12:08:28.695Z,5.30
2022-10-15T12:11:24.065Z,10.07
2022-10-15T12:14:13.089Z,7.50
2022-10-15T12:17:44.498Z,5.75
2022-10-15T12:20:30.799Z,8.43
2022-10-15T12:23:36.974Z,9.52
2022-10-15T12:26:33.882Z,8.18
2022-10-15T12:29:22.394Z,7.72
2022-10-15T12:32:23.674Z,5.82
2022-10-15T12:35:16.090Z,5.15
2022-10-15T12:38:12.619Z,7.22
2022-10-15T12:41:13.368Z,8.30
2022-10-15T12:47:47.108Z,4.22
2022-10-15T12:50:35.174Z,5.20
2022-10-15T12:53:32.496Z,20.67
2022-10-15T12:56:22.467Z,9.32
2022-10-15T12:59:32.287Z,6.57
2022-10-15T13:05:36.215Z,5.05
2022-10-15T13:08:25.464Z,4.78
2022-10-15T13:11:21.556Z,4.97
2022-10-15T13:14:19.725Z,5.28
2022-10-15T13:17:20.628Z,5.18
2022-10-15T13:20:08.977Z,4.60
2022-10-15T13:23:18.941Z,5.38
2022-10-15T13:26:30.118Z,4.40
2022-10-15T13:29:22.570Z,5.53
2022-10-15T13:32:13.651Z,4.68
2022-10-15T13:35:04.526Z,5.85
2022-10-15T13:37:50.903Z,6.05
2022-10-15T13:40:38.322Z,5.85
2022-10-15T13:43:26.157Z,7.00
2022-10-15T13:46:15.608Z,6.10
2022-10-15T13:49:04.879Z,4.78
2022-10-15T13:51:52.327Z,4.50
2022-10-15T13:54:39.043Z,4.40
2022-10-15T13:57:24.969Z,3.47
2022-10-15T14:00:37.252Z,6.03
2022-10-15T14:03:26.331Z,5.38
2022-10-15T14:06:18.980Z,6.70
2022-10-15T14:09:26.994Z,4.30
2022-10-15T14:12:13.542Z,6.65
2022-10-15T14:15:37.927Z,5.00
2022-10-15T14:18:39.259Z,6.57
2022-10-15T14:21:32.008Z,7.15
2022-10-15T14:24:23.856Z,6.93
2022-10-15T14:27:20.555Z,6.82
2022-10-15T14:30:14.357Z,6.05
2022-10-15T14:33:00.303Z,11.55
2022-10-15T14:35:46.175Z,9.65
2022-10-15T14:38:32.324Z,9.45
2022-10-15T14:41:26.384Z,7.75
2022-10-15T14:44:12.273Z,6.47
2022-10-15T14:47:02.687Z,5.88
2022-10-15T14:49:51.374Z,6.38
2022-10-15T14:52:37.527Z,4.95
2022-10-15T14:55:24.077Z,5.53
2022-10-15T14:58:14.484Z,4.75
2022-10-15T15:01:03.305Z,5.30
2022-10-15T15:03:51.981Z,6.57
2022-10-15T15:06:38.196Z,4.80
2022-10-15T15:09:24.231Z,5.72
2022-10-15T15:12:16.956Z,7.75
2022-10-15T15:15:03.570Z,7.70
2022-10-15T15:17:50.006Z,11.40
2022-10-15T15:20:36.162Z,12.10
2022-10-15T15:23:24.882Z,14.30
2022-10-15T15:26:10.420Z,11.95
2022-10-15T15:28:56.305Z,12.35
2022-10-15T15:31:42.240Z,9.93
2022-10-15T15:34:28.235Z,8.70
2022-10-15T15:37:16.945Z,7.80
2022-10-15T15:40:03.298Z,7.50
2022-10-15T15:42:50.695Z,9.43
2022-10-15T15:45:36.955Z,11.75
2022-10-15T15:48:22.916Z,13.13
2022-10-15T15:51:28.390Z,12.00
2022-10-15T15:54:14.165Z,11.88
2022-10-15T15:57:00.214Z,10.50
2022-10-15T15:59:45.985Z,10.70
2022-10-15T16:02:32.047Z,10.48
2022-10-15T16:05:18.047Z,11.55
2022-10-15T16:08:04.338Z,7.57
2022-10-15T16:10:50.454Z,9.57
2022-10-15T16:13:36.333Z,10.40
2022-10-15T16:16:22.311Z,9.60
2022-10-15T16:19:08.860Z,10.32
2022-10-15T16:21:54.967Z,9.15
2022-10-15T16:24:41.116Z,9.52
2022-10-15T16:27:27.504Z,9.52
2022-10-15T16:30:14.804Z,8.20
2022-10-15T16:33:00.484Z,6.85
2022-10-15T16:35:52.081Z,7.85
2022-10-15T16:38:42.813Z,7.43
2022-10-15T16:41:28.702Z,6.90
2022-10-15T16:44:14.558Z,7.28
2022-10-15T16:47:00.587Z,6.38
2022-10-15T16:49:46.401Z,7.95
2022-10-15T16:52:34.265Z,7.13
2022-10-15T16:55:20.261Z,7.75
2022-10-15T16:58:06.183Z,6.40
2022-10-15T17:00:52.139Z,6.32
2022-10-15T17:03:40.007Z,6.55
2022-10-15T17:06:28.243Z,6.15
2022-10-15T17:09:14.755Z,6.43
2022-10-15T17:12:00.722Z,6.72
2022-10-15T17:14:50.762Z,6.22
2022-10-15T17:17:37.039Z,7.13
2022-10-15T17:20:23.150Z,8.70
2022-10-15T17:23:09.357Z,7.82
2022-10-15T17:25:56.155Z,7.30
2022-10-15T17:28:47.660Z,7.03
2022-10-15T17:31:35.597Z,7.25
2022-10-15T17:34:22.126Z,7.70
2022-10-15T17:37:08.476Z,7.43
2022-10-15T17:39:58.183Z,7.50
2022-10-15T17:42:44.919Z,7.32
2022-10-15T17:45:31.275Z,6.95
2022-10-15T17:48:17.572Z,7.13
2022-10-15T17:51:04.280Z,7.28
2022-10-15T17:53:51.886Z,7.55
2022-10-15T17:56:41.553Z,8.85
2022-10-15T17:59:28.207Z,7.57
2022-10-15T18:02:14.513Z,8.43
2022-10-15T18:05:05.431Z,7.00
2022-10-15T18:07:53.150Z,7.80
2022-10-15T18:10:39.233Z,7.03
2022-10-15T18:13:25.466Z,7.43
2022-10-15T18:16:11.645Z,8.10
2022-10-15T18:18:57.622Z,9.95
2022-10-15T18:21:48.478Z,8.52
2022-10-15T18:24:35.788Z,9.48
2022-10-15T18:27:24.409Z,9.27
2022-10-15T18:30:14.001Z,8.27
2022-10-15T18:32:59.942Z,8.70
2022-10-15T18:35:45.779Z,7.95
2022-10-15T18:38:31.911Z,8.70
2022-10-15T18:41:23.440Z,9.68
2022-10-15T18:44:16.714Z,9.60
2022-10-15T18:47:02.783Z,8.65
2022-10-15T18:49:49.869Z,8.30
2022-10-15T18:52:39.871Z,8.13
2022-10-15T18:55:26.611Z,8.50
2022-10-15T18:58:13.078Z,9.35
2022-10-15T19:01:24.886Z,9.25
2022-10-15T19:04:16.423Z,9.55
2022-10-15T19:07:04.582Z,8.75
2022-10-15T19:09:50.732Z,9.07
2022-10-15T19:12:39.752Z,8.52
2022-10-15T19:15:25.922Z,9.07
2022-10-15T19:18:12.201Z,7.55
2022-10-15T19:20:58.443Z,8.07
2022-10-15T19:23:44.358Z,8.23
2022-10-15T19:26:31.824Z,7.82
2022-10-15T19:29:18.448Z,7.68
2022-10-15T19:32:06.291Z,8.93
2022-10-15T19:34:52.436Z,8.10
2022-10-15T19:37:38.415Z,9.23
2022-10-15T19:40:24.514Z,8.77
2022-10-15T19:43:10.338Z,8.18
2022-10-15T19:45:56.414Z,8.50
2022-10-15T19:48:42.339Z,9.40
2022-10-15T19:51:28.328Z,9.40
2022-10-15T19:54:14.246Z,9.13
2022-10-15T19:56:59.963Z,9.13
2022-10-15T19:59:45.890Z,9.25
2022-10-15T20:02:34.104Z,9.30
2022-10-15T20:05:20.219Z,9.45
2022-10-15T20:08:07.553Z,9.77
2022-10-15T20:10:54.346Z,9.38
2022-10-15T20:13:41.013Z,9.10
2022-10-15T20:16:27.570Z,9.00
2022-10-15T20:19:20.828Z,9.02
2022-10-15T20:22:07.136Z,8.68
2022-10-15T20:24:53.049Z,8.52
2022-10-15T20:27:39.015Z,7.93
2022-10-15T20:30:25.117Z,8.25
2022-10-15T20:33:13.274Z,8.27
2022-10-15T20:36:07.260Z,8.57
2022-10-15T20:38:53.520Z,8.07
2022-10-15T20:41:40.832Z,8.18
2022-10-15T20:44:26.947Z,7.75
2022-10-15T20:47:14.589Z,7.55
2022-10-15T20:50:00.729Z,7.50
2022-10-15T20:52:47.138Z,7.90
2022-10-15T20:55:32.899Z,7.18
2022-10-15T20:58:19.226Z,8.02
2022-10-15T21:01:05.263Z,6.82
2022-10-15T21:03:51.448Z,7.65
2022-10-15T21:06:37.586Z,7.30
2022-10-15T21:09:23.778Z,8.25
2022-10-15T21:12:10.502Z,7.93
2022-10-15T21:14:56.821Z,8.75
2022-10-15T21:17:43.077Z,7.97
2022-10-15T21:20:29.087Z,7.72
2022-10-15T21:23:15.599Z,8.13
2022-10-15T21:26:09.045Z,7.65
2022-10-15T21:28:56.075Z,7.60
2022-10-15T21:31:43.275Z,9.50
2022-10-15T21:34:29.676Z,9.07
2022-10-15T21:37:15.497Z,8.95
2022-10-15T21:40:01.322Z,8.57
2022-10-15T21:42:47.189Z,8.40
2022-10-15T21:45:33.251Z,9.63
2022-10-15T21:48:19.693Z,9.55
2022-10-15T21:51:09.740Z,8.77
2022-10-15T21:53:56.705Z,8.93
2022-10-15T21:56:42.804Z,8.65
2022-10-15T21:59:28.747Z,8.55
2022-10-15T22:02:14.620Z,7.63
2022-10-15T22:05:00.450Z,7.30
2022-10-15T22:07:46.442Z,7.32
2022-10-15T22:10:32.321Z,8.27
2022-10-15T22:13:18.274Z,8.32
2022-10-15T22:16:04.934Z,7.25
2022-10-15T22:18:51.289Z,7.07
2022-10-15T22:21:38.563Z,7.55
2022-10-15T22:24:25.128Z,7.65
2022-10-15T22:27:12.733Z,6.85
2022-10-15T22:29:59.045Z,7.35
2022-10-15T22:32:44.826Z,6.95
2022-10-15T22:35:33.177Z,7.68
2022-10-15T22:38:19.280Z,8.15
2022-10-15T22:41:07.235Z,5.68
2022-10-15T22:43:53.318Z,6.63
2022-10-15T22:46:39.803Z,5.97
2022-10-15T22:49:26.259Z,6.55
2022-10-15T22:52:12.581Z,6.35
2022-10-15T22:54:58.717Z,6.50
2022-10-15T22:57:44.578Z,6.13
2022-10-15T23:00:31.363Z,7.15
2022-10-15T23:03:17.423Z,5.78
2022-10-15T23:06:04.077Z,7.15
2022-10-15T23:08:50.219Z,7.57
2022-10-15T23:11:40.123Z,7.53
2022-10-15T23:14:25.871Z,6.35
2022-10-15T23:17:11.936Z,6.72
2022-10-15T23:19:58.012Z,6.47
2022-10-15T23:22:44.222Z,6.80
2022-10-15T23:25:30.111Z,6.38
2022-10-15T23:28:16.315Z,6.90
2022-10-15T23:31:02.211Z,6.25
2022-10-15T23:33:48.358Z,6.28
2022-10-15T23:36:34.621Z,6.80
2022-10-15T23:39:23.494Z,6.25
2022-10-15T23:42:09.552Z,6.78
2022-10-15T23:44:55.408Z,6.13
2022-10-15T23:47:41.560Z,6.82
2022-10-15T23:50:34.309Z,7.10
2022-10-15T23:53:20.510Z,7.00
2022-10-15T23:56:06.906Z,5.88
2022-10-15T23:58:54.763Z,6.97
